createdAt,value
2019-02-12T00:00:18.416Z,10.47
2019-02-12T00:02:47.350Z,12.07
2019-02-12T00:05:16.461Z,11.23
2019-02-12T00:07:45.457Z,9.73
2019-02-12T00:10:14.291Z,10.10
2019-02-12T00:12:43.585Z,16.30
2019-02-12T00:15:12.360Z,11.53
2019-02-12T00:17:41.535Z,11.97
2019-02-12T00:20:10.286Z,12.83
2019-02-12T00:22:39.105Z,17.40
2019-02-12T00:25:08.017Z,12.37
2019-02-12T00:27:36.829Z,12.73
2019-02-12T00:30:06.368Z,10.27
2019-02-12T00:32:35.181Z,11.07
2019-02-12T00:35:04.123Z,15.00
2019-02-12T00:37:33.139Z,14.38
2019-02-12T00:40:02.073Z,14.07
2019-02-12T00:42:31.624Z,12.90
2019-02-12T00:45:00.978Z,18.73
2019-02-12T00:47:30.189Z,11.80
2019-02-12T00:49:59.339Z,23.77
2019-02-12T00:52:28.150Z,14.93
2019-02-12T00:54:57.018Z,18.27
2019-02-12T00:57:26.012Z,18.43
2019-02-12T00:59:54.900Z,17.63
2019-02-12T01:02:24.108Z,15.33
2019-02-12T01:04:53.069Z,11.43
2019-02-12T01:07:22.086Z,11.87
2019-02-12T01:09:51.723Z,13.67
2019-02-12T01:12:20.569Z,15.10
2019-02-12T01:14:49.710Z,12.33
2019-02-12T01:17:18.490Z,12.13
2019-02-12T01:19:47.454Z,17.90
2019-02-12T01:22:16.379Z,14.93
2019-02-12T01:24:45.427Z,15.30
2019-02-12T01:27:14.515Z,13.37
2019-02-12T01:29:43.297Z,12.47
2019-02-12T01:32:12.109Z,15.13
2019-02-12T01:34:40.955Z,13.60
2019-02-12T01:37:11.195Z,13.90
2019-02-12T01:39:40.227Z,11.73
2019-02-12T01:42:09.036Z,16.53
2019-02-12T01:44:37.810Z,13.10
2019-02-12T01:47:06.701Z,10.57
2019-02-12T01:49:35.671Z,21.27
2019-02-12T01:52:05.179Z,16.93
2019-02-12T01:54:34.663Z,12.37
2019-02-12T01:57:03.539Z,9.27
2019-02-12T01:59:32.328Z,18.77
2019-02-12T02:02:01.359Z,16.37
2019-02-12T02:04:30.300Z,14.27
2019-02-12T02:06:59.155Z,15.20
2019-02-12T02:09:28.177Z,14.70
2019-02-12T02:11:57.009Z,18.70
2019-02-12T02:14:25.784Z,12.07
2019-02-12T02:16:54.915Z,16.10
2019-02-12T02:19:23.673Z,13.57
2019-02-12T02:21:52.691Z,10.53
2019-02-12T02:24:21.447Z,12.70
2019-02-12T02:26:50.376Z,15.80
2019-02-12T02:29:19.231Z,12.90
2019-02-12T02:31:48.100Z,10.90
2019-02-12T02:34:16.881Z,10.00
2019-02-12T02:36:45.785Z,8.33
2019-02-12T02:39:14.822Z,12.57
2019-02-12T02:41:43.786Z,9.90
2019-02-12T02:44:12.547Z,7.50
2019-02-12T02:46:41.702Z,10.13
2019-02-12T02:49:11.237Z,11.67
2019-02-12T02:51:40.765Z,10.00
2019-02-12T02:54:09.628Z,9.33
2019-02-12T02:56:39.808Z,10.83
2019-02-12T02:59:09.312Z,12.00
2019-02-12T03:01:38.799Z,8.93
2019-02-12T03:04:07.803Z,12.07
2019-02-12T03:06:37.070Z,16.53
2019-02-12T03:09:07.951Z,5.23
2019-02-12T03:11:36.840Z,11.07
2019-02-12T03:14:05.975Z,11.50
2019-02-12T03:16:34.910Z,11.17
2019-02-12T03:19:04.027Z,14.73
2019-02-12T03:21:33.197Z,11.67
2019-02-12T03:24:02.204Z,12.17
2019-02-12T03:26:31.108Z,14.33
2019-02-12T03:29:00.163Z,8.77
2019-02-12T03:31:29.085Z,10.33
2019-02-12T03:33:58.168Z,10.20
2019-02-12T03:36:28.372Z,11.53
2019-02-12T03:38:57.545Z,9.27
2019-02-12T03:41:26.537Z,8.77
2019-02-12T03:43:55.464Z,11.03
2019-02-12T03:46:24.437Z,12.70
2019-02-12T03:48:53.287Z,10.57
2019-02-12T03:51:22.336Z,8.90
2019-02-12T03:53:53.435Z,12.70
2019-02-12T03:56:22.498Z,10.93
2019-02-12T03:58:51.248Z,10.30
2019-02-12T04:01:20.081Z,12.97
2019-02-12T04:03:49.083Z,13.70
2019-02-12T04:06:17.902Z,10.57
2019-02-12T04:08:48.005Z,12.60
2019-02-12T04:11:16.743Z,12.63
2019-02-12T04:13:45.814Z,9.07
2019-02-12T04:16:14.693Z,10.43
2019-02-12T04:18:43.662Z,10.60
2019-02-12T04:21:12.543Z,12.87
2019-02-12T04:23:41.427Z,11.20
2019-02-12T04:26:10.315Z,8.60
2019-02-12T04:28:39.108Z,19.63
2019-02-12T04:31:07.911Z,14.87
2019-02-12T04:33:36.986Z,11.03
2019-02-12T04:36:06.098Z,8.10
2019-02-12T04:38:34.934Z,12.13
2019-02-12T04:41:03.976Z,15.37
2019-02-12T04:43:32.958Z,11.70
2019-02-12T04:46:02.303Z,12.17
2019-02-12T04:48:31.140Z,14.70
2019-02-12T04:51:00.063Z,10.57
2019-02-12T04:53:29.639Z,11.50
2019-02-12T04:55:58.551Z,8.73
2019-02-12T04:58:27.398Z,14.00
2019-02-12T05:00:56.175Z,10.60
2019-02-12T05:03:26.227Z,10.10
2019-02-12T05:05:55.012Z,10.33
2019-02-12T05:08:24.020Z,16.00
2019-02-12T05:10:55.807Z,19.57
2019-02-12T05:13:24.824Z,12.83
2019-02-12T05:15:53.788Z,9.43
2019-02-12T05:18:22.705Z,16.50
2019-02-12T05:20:51.727Z,11.83
2019-02-12T05:23:20.967Z,14.10
2019-02-12T05:25:49.774Z,14.33
2019-02-12T05:28:18.889Z,14.40
2019-02-12T05:30:47.979Z,15.53
2019-02-12T05:33:16.781Z,14.70
2019-02-12T05:35:45.579Z,12.33
2019-02-12T05:38:15.043Z,13.73
2019-02-12T05:40:44.610Z,13.63
2019-02-12T05:43:13.546Z,10.93
2019-02-12T05:45:42.425Z,10.97
2019-02-12T05:48:11.365Z,15.37
2019-02-12T05:50:40.107Z,12.50
2019-02-12T05:53:09.081Z,19.83
2019-02-12T05:55:38.073Z,14.03
2019-02-12T05:58:06.979Z,13.40
2019-02-12T06:00:35.890Z,11.53
2019-02-12T06:03:04.671Z,11.87
2019-02-12T06:05:34.032Z,11.53
2019-02-12T06:08:03.383Z,10.20
2019-02-12T06:10:32.428Z,17.17
2019-02-12T06:13:01.387Z,23.33
2019-02-12T06:15:30.474Z,11.93
2019-02-12T06:17:59.901Z,13.13
2019-02-12T06:20:29.099Z,15.47
2019-02-12T06:23:03.721Z,11.77
2019-02-12T06:25:28.603Z,14.75
2019-02-12T06:27:57.631Z,13.07
2019-02-12T06:30:27.016Z,12.83
2019-02-12T06:32:56.445Z,11.20
2019-02-12T06:35:25.328Z,10.47
2019-02-12T06:37:54.242Z,12.47
2019-02-12T06:40:23.078Z,14.73
2019-02-12T06:42:52.037Z,14.93
2019-02-12T06:45:21.090Z,15.87
2019-02-12T06:47:49.935Z,9.93
2019-02-12T06:50:18.719Z,13.27
2019-02-12T06:52:48.099Z,14.30
2019-02-12T06:55:17.047Z,11.97
2019-02-12T06:57:46.112Z,14.43
2019-02-12T07:00:15.111Z,14.07
2019-02-12T07:03:01.663Z,14.63
2019-02-12T07:05:30.483Z,19.77
2019-02-12T07:08:08.819Z,11.47
2019-02-12T07:10:38.225Z,14.13
2019-02-12T07:13:16.383Z,16.53
2019-02-12T07:15:51.048Z,15.77
2019-02-12T07:18:37.574Z,13.23
2019-02-12T07:21:18.156Z,14.60
2019-02-12T07:23:55.287Z,18.37
2019-02-12T07:26:55.265Z,15.27
2019-02-12T07:29:58.396Z,17.63
2019-02-12T07:32:44.983Z,14.53
2019-02-12T07:35:21.512Z,8.93
2019-02-12T07:38:15.502Z,11.40
2019-02-12T07:40:57.535Z,14.97
2019-02-12T07:43:49.111Z,14.93
2019-02-12T07:46:49.365Z,11.00
2019-02-12T07:49:28.294Z,10.27
2019-02-12T07:52:04.186Z,11.93
2019-02-12T07:54:40.501Z,16.23
2019-02-12T07:57:27.446Z,12.97
2019-02-12T08:00:14.774Z,14.90
2019-02-12T08:03:09.446Z,10.90
2019-02-12T08:05:57.331Z,16.97
2019-02-12T08:08:46.615Z,13.10
2019-02-12T08:11:21.969Z,14.40
2019-02-12T08:14:08.581Z,14.13
2019-02-12T08:16:44.121Z,12.00
2019-02-12T08:19:35.127Z,14.00
2019-02-12T08:22:23.138Z,11.33
2019-02-12T08:24:55.726Z,17.20
2019-02-12T08:27:42.417Z,11.40
2019-02-12T08:30:14.457Z,11.17
2019-02-12T08:33:05.208Z,21.67
2019-02-12T08:36:11.425Z,13.73
2019-02-12T08:39:17.248Z,16.93
2019-02-12T08:42:11.396Z,13.17
2019-02-12T08:45:01.131Z,13.80
2019-02-12T08:47:50.318Z,14.93
2019-02-12T08:50:31.971Z,13.10
2019-02-12T08:53:11.361Z,10.20
2019-02-12T08:56:11.222Z,18.10
2019-02-12T08:59:08.169Z,16.60
2019-02-12T09:01:56.046Z,11.67
2019-02-12T09:04:32.215Z,14.80
2019-02-12T09:07:29.367Z,13.17
2019-02-12T09:10:16.048Z,11.87
2019-02-12T09:13:06.949Z,13.00
2019-02-12T09:15:53.743Z,13.40
2019-02-12T09:18:30.281Z,14.03
2019-02-12T09:21:24.013Z,12.13
2019-02-12T09:24:06.142Z,15.27
2019-02-12T09:26:52.082Z,12.17
2019-02-12T09:29:39.962Z,14.23
2019-02-12T09:32:26.357Z,12.73
2019-02-12T09:35:14.640Z,17.07
2019-02-12T09:37:59.030Z,9.77
2019-02-12T09:40:49.631Z,12.33
2019-02-12T09:43:37.518Z,12.93
2019-02-12T09:46:10.862Z,12.83
2019-02-12T09:48:46.320Z,17.17
2019-02-12T09:51:26.655Z,11.23
2019-02-12T09:54:08.747Z,12.43
2019-02-12T09:56:55.289Z,15.93
2019-02-12T09:59:45.645Z,13.50
2019-02-12T10:02:28.822Z,13.80
2019-02-12T10:05:05.297Z,9.93
2019-02-12T10:07:40.950Z,13.43
2019-02-12T10:10:45.590Z,13.20
2019-02-12T10:13:19.912Z,14.13
2019-02-12T10:16:11.043Z,13.73
2019-02-12T10:19:05.317Z,12.90
2019-02-12T10:21:37.761Z,13.80
2019-02-12T10:24:34.788Z,14.40
2019-02-12T10:27:13.045Z,16.17
2019-02-12T10:30:03.808Z,11.77
2019-02-12T10:32:31.938Z,14.87
2019-02-12T10:35:01.991Z,15.27
2019-02-12T10:37:31.536Z,16.63
2019-02-12T10:40:00.543Z,17.37
2019-02-12T10:42:29.604Z,16.37
2019-02-12T10:44:58.843Z,12.63
2019-02-12T10:47:27.635Z,14.70
2019-02-12T10:49:56.586Z,17.50
2019-02-12T10:52:25.391Z,15.30
2019-02-12T10:54:54.229Z,16.90
2019-02-12T10:57:23.030Z,17.90
2019-02-12T10:59:51.920Z,14.27
2019-02-12T11:02:20.792Z,16.57
2019-02-12T11:04:49.689Z,14.03
2019-02-12T11:07:18.811Z,13.83
2019-02-12T11:09:48.111Z,17.57
2019-02-12T11:12:16.924Z,14.87
2019-02-12T11:14:45.941Z,14.53
2019-02-12T11:17:14.946Z,15.73
2019-02-12T11:19:44.237Z,11.77
2019-02-12T11:22:13.123Z,12.87
2019-02-12T11:24:42.052Z,18.17
2019-02-12T11:27:10.995Z,13.97
2019-02-12T11:29:39.794Z,11.00
2019-02-12T11:32:08.746Z,18.00
2019-02-12T11:34:37.604Z,13.67
2019-02-12T11:37:06.616Z,16.73
2019-02-12T11:39:35.410Z,14.33
2019-02-12T11:42:04.556Z,15.00
2019-02-12T11:44:33.333Z,20.83
2019-02-12T11:47:02.130Z,20.37
2019-02-12T11:49:30.943Z,18.80
2019-02-12T11:51:59.963Z,19.07
2019-02-12T11:54:28.721Z,15.70
2019-02-12T11:56:57.532Z,15.10
2019-02-12T11:59:26.417Z,17.13
2019-02-12T12:01:55.264Z,20.80
2019-02-12T12:04:24.039Z,15.27
2019-02-12T12:06:52.853Z,18.60
2019-02-12T12:09:21.734Z,16.93
2019-02-12T12:11:50.720Z,19.17
2019-02-12T12:14:19.618Z,19.33
2019-02-12T12:16:48.376Z,20.00
2019-02-12T12:19:17.301Z,17.20
2019-02-12T12:21:46.075Z,17.50
2019-02-12T12:24:14.894Z,20.73
2019-02-12T12:26:43.664Z,11.90
2019-02-12T12:29:12.450Z,13.73
2019-02-12T12:31:41.216Z,18.10
2019-02-12T12:34:10.014Z,17.40
2019-02-12T12:36:39.640Z,20.60
2019-02-12T12:39:08.830Z,17.63
2019-02-12T12:41:37.600Z,15.70
2019-02-12T12:44:06.435Z,16.97
2019-02-12T12:46:35.216Z,12.07
2019-02-12T12:49:04.181Z,13.03
2019-02-12T12:51:33.033Z,15.60
2019-02-12T12:54:02.292Z,14.23
2019-02-12T12:56:31.101Z,13.50
2019-02-12T12:59:00.120Z,14.43
2019-02-12T13:01:28.905Z,16.83
2019-02-12T13:03:57.803Z,11.90
2019-02-12T13:06:26.638Z,10.00
2019-02-12T13:08:55.424Z,13.17
2019-02-12T13:11:24.497Z,9.40
2019-02-12T13:13:53.380Z,14.20
2019-02-12T13:16:22.304Z,11.77
2019-02-12T13:18:51.334Z,14.00
2019-02-12T13:21:21.983Z,13.87
2019-02-12T13:23:50.811Z,13.30
2019-02-12T13:26:19.712Z,11.97
2019-02-12T13:28:48.489Z,11.73
2019-02-12T13:31:17.283Z,11.40
2019-02-12T13:33:46.232Z,12.40
2019-02-12T13:36:15.426Z,14.80
2019-02-12T13:38:44.439Z,14.17
2019-02-12T13:41:14.015Z,12.67
2019-02-12T13:43:43.094Z,13.37
2019-02-12T13:46:11.972Z,11.57
2019-02-12T13:48:41.888Z,14.73
2019-02-12T13:51:10.709Z,17.83
2019-02-12T13:53:39.513Z,12.37
2019-02-12T13:56:08.527Z,14.37
2019-02-12T13:58:37.301Z,11.70
2019-02-12T14:01:06.227Z,12.23
2019-02-12T14:03:35.267Z,12.90
2019-02-12T14:06:04.095Z,15.37
2019-02-12T14:08:35.058Z,13.67
2019-02-12T14:11:03.926Z,16.07
2019-02-12T14:13:32.866Z,10.73
2019-02-12T14:16:01.932Z,9.70
2019-02-12T14:18:30.831Z,15.10
2019-02-12T14:20:59.729Z,12.33
2019-02-12T14:23:28.970Z,12.73
2019-02-12T14:25:58.177Z,12.23
2019-02-12T14:28:27.137Z,13.47
2019-02-12T14:30:56.233Z,13.80
2019-02-12T14:33:25.244Z,10.83
2019-02-12T14:35:54.015Z,12.80
2019-02-12T14:38:23.017Z,13.90
2019-02-12T14:40:51.887Z,19.30
2019-02-12T14:43:20.735Z,20.20
2019-02-12T14:45:49.523Z,15.07
2019-02-12T14:48:18.314Z,15.33
2019-02-12T14:50:47.124Z,17.37
2019-02-12T14:53:16.013Z,17.27
2019-02-12T14:55:44.880Z,17.70
2019-02-12T14:58:13.736Z,15.57
2019-02-12T15:00:44.693Z,19.23
2019-02-12T15:03:14.494Z,18.63
2019-02-12T15:05:43.327Z,14.10
2019-02-12T15:08:12.273Z,16.00
2019-02-12T15:10:41.245Z,15.17
2019-02-12T15:13:09.986Z,19.37
2019-02-12T15:15:39.218Z,15.23
2019-02-12T15:18:08.004Z,18.00
2019-02-12T15:20:37.205Z,17.93
2019-02-12T15:23:06.071Z,13.67
2019-02-12T15:25:41.825Z,15.43
2019-02-12T15:28:05.810Z,14.00
2019-02-12T15:30:34.693Z,16.70
2019-02-12T15:33:03.938Z,16.83
2019-02-12T15:35:34.231Z,14.67
2019-02-12T15:38:03.047Z,14.57
2019-02-12T15:40:31.887Z,13.57
2019-02-12T15:43:01.232Z,14.83
2019-02-12T15:45:30.251Z,15.13
2019-02-12T15:47:59.415Z,14.77
2019-02-12T15:50:28.254Z,16.50
2019-02-12T15:52:57.120Z,14.77
2019-02-12T15:55:26.214Z,14.87
2019-02-12T15:57:55.108Z,15.70
2019-02-12T16:00:24.048Z,13.33
2019-02-12T16:02:54.524Z,15.47
2019-02-12T16:05:23.834Z,17.47
2019-02-12T16:07:52.811Z,14.97
2019-02-12T16:10:21.781Z,13.50
2019-02-12T16:12:51.482Z,15.03
2019-02-12T16:15:22.395Z,15.33
2019-02-12T16:17:51.424Z,14.90
2019-02-12T16:20:20.313Z,14.10
2019-02-12T16:22:49.145Z,16.47
2019-02-12T16:25:18.222Z,17.47
2019-02-12T16:27:47.214Z,18.70
2019-02-12T16:30:16.767Z,19.10
2019-02-12T16:32:45.603Z,16.10
2019-02-12T16:35:15.747Z,15.83
2019-02-12T16:37:44.655Z,15.97
2019-02-12T16:40:13.676Z,18.43
2019-02-12T16:42:44.444Z,17.27
2019-02-12T16:45:14.785Z,23.33
2019-02-12T16:47:43.632Z,18.57
2019-02-12T16:50:12.420Z,23.83
2019-02-12T16:52:41.380Z,20.90
2019-02-12T16:55:10.478Z,19.03
2019-02-12T16:57:39.332Z,20.73
2019-02-12T17:00:10.117Z,19.13
2019-02-12T17:02:39.111Z,19.53
2019-02-12T17:05:08.762Z,18.50
2019-02-12T17:07:37.678Z,18.60
2019-02-12T17:10:07.118Z,16.60
2019-02-12T17:12:36.027Z,21.57
2019-02-12T17:15:05.410Z,20.47
2019-02-12T17:17:34.784Z,20.57
2019-02-12T17:20:04.156Z,17.13
2019-02-12T17:22:32.996Z,18.90
2019-02-12T17:25:02.075Z,21.87
2019-02-12T17:27:31.346Z,19.03
2019-02-12T17:30:00.496Z,15.90
2019-02-12T17:32:29.495Z,18.27
2019-02-12T17:35:01.337Z,23.50
2019-02-12T17:37:28.832Z,20.07
2019-02-12T17:39:58.092Z,17.47
2019-02-12T17:42:26.995Z,19.50
2019-02-12T17:44:55.965Z,17.97
2019-02-12T17:47:24.740Z,17.00
2019-02-12T17:49:53.697Z,16.00
2019-02-12T17:52:24.078Z,18.77
2019-02-12T17:54:52.993Z,25.60
2019-02-12T17:57:21.841Z,19.63
2019-02-12T17:59:51.462Z,19.00
2019-02-12T18:02:20.505Z,20.80
2019-02-12T18:04:49.575Z,18.00
2019-02-12T18:07:18.424Z,15.57
2019-02-12T18:09:47.757Z,20.47
2019-02-12T18:12:18.806Z,17.30
2019-02-12T18:14:47.710Z,17.77
2019-02-12T18:17:17.452Z,20.90
2019-02-12T18:19:46.492Z,21.17
2019-02-12T18:22:15.641Z,21.10
2019-02-12T18:24:44.820Z,19.13
2019-02-12T18:27:13.719Z,20.50
2019-02-12T18:29:42.564Z,18.93
2019-02-12T18:32:11.600Z,20.60
2019-02-12T18:34:40.661Z,20.47
2019-02-12T18:37:09.618Z,19.60
2019-02-12T18:39:38.779Z,20.03
2019-02-12T18:42:08.709Z,17.77
2019-02-12T18:44:37.832Z,23.07
2019-02-12T18:47:07.038Z,20.87
2019-02-12T18:49:36.347Z,24.03
2019-02-12T18:52:05.644Z,20.67
2019-02-12T18:54:34.590Z,22.70
2019-02-12T18:57:04.030Z,23.07
2019-02-12T18:59:33.002Z,21.13
2019-02-12T19:02:02.040Z,23.40
2019-02-12T19:04:31.134Z,23.47
2019-02-12T19:07:00.878Z,22.00
2019-02-12T19:09:30.009Z,25.57
2019-02-12T19:11:59.062Z,22.53
2019-02-12T19:14:28.006Z,21.37
2019-02-12T19:16:58.236Z,21.73
2019-02-12T19:19:27.277Z,26.87
2019-02-12T19:21:56.324Z,27.67
2019-02-12T19:24:25.358Z,24.13
2019-02-12T19:26:54.440Z,22.50
2019-02-12T19:29:23.819Z,21.63
2019-02-12T19:31:59.207Z,25.13
2019-02-12T19:34:23.814Z,26.40
2019-02-12T19:36:52.702Z,25.20
2019-02-12T19:39:21.938Z,23.03
2019-02-12T19:41:50.812Z,24.50
2019-02-12T19:44:20.720Z,22.57
2019-02-12T19:46:49.888Z,23.63
2019-02-12T19:49:18.998Z,21.57
2019-02-12T19:51:48.138Z,26.00
2019-02-12T19:54:17.109Z,20.80
2019-02-12T19:56:46.242Z,24.33
2019-02-12T19:59:15.342Z,22.77
2019-02-12T20:01:44.807Z,27.60
2019-02-12T20:04:15.267Z,21.60
2019-02-12T20:06:44.473Z,24.00
2019-02-12T20:09:20.448Z,24.33
2019-02-12T20:11:49.626Z,26.37
2019-02-12T20:14:19.405Z,22.50
2019-02-12T20:16:49.141Z,23.20
2019-02-12T20:19:18.562Z,20.73
2019-02-12T20:21:47.714Z,25.73
2019-02-12T20:24:16.928Z,22.80
2019-02-12T20:26:45.972Z,26.43
2019-02-12T20:29:15.015Z,32.63
2019-02-12T20:31:44.355Z,24.97
2019-02-12T20:34:13.409Z,23.73
2019-02-12T20:36:43.241Z,24.47
2019-02-12T20:39:12.719Z,29.70
2019-02-12T20:41:41.995Z,25.47
2019-02-12T20:44:10.945Z,27.50
2019-02-12T20:46:40.360Z,23.13
2019-02-12T20:49:09.843Z,27.53
2019-02-12T20:51:39.272Z,28.97
2019-02-12T20:54:08.565Z,31.90
2019-02-12T20:56:38.525Z,26.53
2019-02-12T20:59:07.680Z,24.00
2019-02-12T21:01:55.613Z,21.60
2019-02-12T21:04:24.852Z,25.30
2019-02-12T21:06:54.733Z,21.50
2019-02-12T21:09:23.711Z,22.90
2019-02-12T21:11:52.985Z,22.30
2019-02-12T21:14:22.142Z,21.47
2019-02-12T21:16:51.529Z,23.17
2019-02-12T21:19:20.543Z,21.20
2019-02-12T21:21:49.746Z,23.73
2019-02-12T21:24:19.249Z,25.40
2019-02-12T21:26:48.470Z,24.30
2019-02-12T21:29:17.489Z,22.80
2019-02-12T21:31:46.575Z,23.93
2019-02-12T21:34:15.704Z,22.13
2019-02-12T21:36:45.106Z,24.27
2019-02-12T21:39:16.190Z,25.83
2019-02-12T21:41:45.123Z,24.23
2019-02-12T21:44:18.436Z,24.17
2019-02-12T21:46:47.492Z,23.27
2019-02-12T21:49:16.856Z,22.77
2019-02-12T21:51:45.999Z,21.57
2019-02-12T21:54:15.364Z,22.77
2019-02-12T21:56:44.454Z,22.83
2019-02-12T21:59:13.496Z,23.77
2019-02-12T22:01:42.736Z,24.10
2019-02-12T22:04:12.445Z,24.33
2019-02-12T22:06:41.706Z,26.47
2019-02-12T22:09:14.091Z,21.67
2019-02-12T22:11:43.136Z,24.43
2019-02-12T22:14:13.658Z,24.70
2019-02-12T22:16:42.656Z,23.57
2019-02-12T22:19:12.092Z,25.13
2019-02-12T22:21:42.475Z,25.57
2019-02-12T22:24:14.027Z,24.53
2019-02-12T22:26:43.048Z,22.33
2019-02-12T22:29:12.366Z,23.50
2019-02-12T22:31:41.401Z,23.53
2019-02-12T22:34:10.530Z,25.07
2019-02-12T22:36:39.507Z,25.27
2019-02-12T22:39:08.509Z,24.10
2019-02-12T22:41:37.615Z,26.37
2019-02-12T22:44:06.433Z,22.90
2019-02-12T22:46:35.344Z,26.43
2019-02-12T22:49:04.536Z,28.87
2019-02-12T22:51:33.782Z,25.50
2019-02-12T22:54:03.032Z,23.97
2019-02-12T22:56:32.136Z,26.10
2019-02-12T22:59:01.280Z,26.47
2019-02-12T23:01:40.315Z,28.70
2019-02-12T23:04:10.201Z,26.27
2019-02-12T23:06:39.070Z,26.03
2019-02-12T23:09:16.359Z,24.97
2019-02-12T23:11:45.693Z,27.67
2019-02-12T23:14:15.370Z,26.63
2019-02-12T23:16:45.347Z,30.67
2019-02-12T23:19:14.401Z,28.50
2019-02-12T23:21:43.429Z,25.07
2019-02-12T23:24:12.491Z,26.10
2019-02-12T23:26:41.664Z,27.40
2019-02-12T23:29:10.478Z,24.60
2019-02-12T23:31:39.340Z,25.60
2019-02-12T23:34:08.183Z,25.57
2019-02-12T23:36:37.155Z,27.23
2019-02-12T23:39:06.732Z,30.60
2019-02-12T23:41:35.595Z,24.73
2019-02-12T23:44:04.689Z,26.10
2019-02-12T23:46:33.631Z,23.83
2019-02-12T23:51:40.603Z,25.63
2019-02-12T23:54:09.435Z,27.47
2019-02-12T23:56:38.383Z,23.90
2019-02-12T23:59:07.176Z,26.63
